createdAt,value
2018-03-25T00:09:21.169Z,7.6
2018-03-25T00:19:21.483Z,7.7
2018-03-25T00:29:20.144Z,7.6
2018-03-25T00:39:19.433Z,7.5
2018-03-25T00:49:17.880Z,7.5
2018-03-25T00:59:17.154Z,7.4
2018-03-25T01:09:16.932Z,7.4
2018-03-25T01:19:15.634Z,7.3
2018-03-25T01:29:14.778Z,7.1
2018-03-25T01:39:14.016Z,7
2018-03-25T01:49:13.765Z,6.8
2018-03-25T01:59:12.941Z,6.6
2018-03-25T02:09:11.671Z,6.7
2018-03-25T02:19:10.947Z,6.6
2018-03-25T02:29:10.601Z,6.4
2018-03-25T02:39:09.748Z,6.4
2018-03-25T02:49:08.596Z,6.2
2018-03-25T02:59:08.157Z,6.3
2018-03-25T03:09:06.908Z,6.4
2018-03-25T03:19:06.227Z,6.4
2018-03-25T03:29:05.310Z,6.3
2018-03-25T03:39:04.609Z,6.3
2018-03-25T03:49:04.425Z,6.1
2018-03-25T03:59:03.153Z,6.1
2018-03-25T04:09:02.337Z,6.1
2018-03-25T04:19:01.560Z,6.1
2018-03-25T04:29:00.642Z,6.1
2018-03-25T04:38:59.667Z,5.9
2018-03-25T04:48:58.842Z,5.8
2018-03-25T04:58:58.368Z,5.9
2018-03-25T05:08:57.336Z,5.9
2018-03-25T05:18:57.013Z,5.9
2018-03-25T05:28:56.072Z,6
2018-03-25T05:38:54.996Z,6.1
2018-03-25T05:48:54.664Z,6.2
2018-03-25T05:58:53.266Z,4.4
2018-03-25T06:08:52.472Z,2.6
2018-03-25T06:18:51.830Z,2.1
2018-03-25T06:28:51.146Z,2
2018-03-25T06:38:50.679Z,2
2018-03-25T06:48:49.303Z,2.3
2018-03-25T06:58:48.995Z,2.8
2018-03-25T07:08:47.790Z,3.4
2018-03-25T07:18:46.729Z,3.9
2018-03-25T07:28:46.346Z,4.8
2018-03-25T07:38:45.527Z,5.6
2018-03-25T07:48:44.883Z,5.2
2018-03-25T07:58:43.876Z,6.3
2018-03-25T08:08:43.136Z,6.4
2018-03-25T08:18:42.331Z,7.4
2018-03-25T08:28:41.273Z,6
2018-03-25T08:38:40.788Z,5.3
2018-03-25T08:48:39.700Z,4.8
2018-03-25T08:58:39.726Z,4.6
2018-03-25T09:08:38.308Z,4.3
2018-03-25T09:18:37.569Z,4.2
2018-03-25T09:28:36.438Z,4.3
2018-03-25T09:38:35.730Z,4.3
2018-03-25T09:48:35.232Z,3.7
2018-03-25T09:58:34.426Z,3.6
2018-03-25T10:08:33.424Z,3.7
2018-03-25T10:18:32.536Z,4.3
2018-03-25T10:28:31.875Z,4.2
2018-03-25T10:38:30.955Z,4.8
2018-03-25T10:48:30.281Z,4.1
2018-03-25T10:58:29.564Z,4.7
2018-03-25T11:08:28.463Z,4.6
2018-03-25T11:18:27.870Z,4.8
2018-03-25T11:28:27.120Z,5.2
2018-03-25T11:38:26.748Z,4.9
2018-03-25T11:48:25.421Z,4.7
2018-03-25T11:58:25.190Z,4.4
2018-03-25T12:08:24.249Z,4.7
2018-03-25T12:18:23.283Z,4.6
2018-03-25T12:28:22.532Z,6.1
2018-03-25T12:38:21.559Z,4.6
2018-03-25T12:48:20.707Z,4.3
2018-03-25T12:58:20.064Z,4.2
2018-03-25T13:08:19.209Z,4.6
2018-03-25T13:18:18.601Z,4.9
2018-03-25T13:28:18.008Z,4.6
2018-03-25T13:38:17.038Z,4.6
2018-03-25T13:48:16.151Z,5.3
2018-03-25T13:58:15.175Z,5.6
2018-03-25T14:08:14.462Z,5
2018-03-25T14:18:13.467Z,4.8
2018-03-25T14:28:12.745Z,4.5
2018-03-25T14:38:12.029Z,4.3
2018-03-25T14:48:11.045Z,4
2018-03-25T14:58:10.664Z,3.9
2018-03-25T15:08:09.510Z,3.7
2018-03-25T15:18:08.806Z,3.5
2018-03-25T15:28:08.130Z,3.3
2018-03-25T15:38:07.731Z,3.1
2018-03-25T15:48:06.859Z,2.9
2018-03-25T15:58:06.009Z,2.8
2018-03-25T16:08:05.289Z,2.6
2018-03-25T16:18:03.863Z,2.8
2018-03-25T16:28:03.159Z,2.8
2018-03-25T16:38:02.246Z,2.9
2018-03-25T16:48:01.591Z,2.8
2018-03-25T16:58:00.663Z,2.7
2018-03-25T17:08:00.101Z,2.8
2018-03-25T17:17:59.331Z,3.8
2018-03-25T17:27:58.775Z,4.6
2018-03-25T17:37:57.904Z,5.1
2018-03-25T17:47:57.138Z,5.3
2018-03-25T17:57:56.710Z,5.6
2018-03-25T18:07:55.129Z,5.7
2018-03-25T18:17:54.986Z,5.8
2018-03-25T18:27:53.890Z,5.9
2018-03-25T18:37:53.516Z,5.9
2018-03-25T18:47:53.049Z,5.9
2018-03-25T18:57:51.310Z,5.9
2018-03-25T19:07:50.689Z,5.9
2018-03-25T19:17:49.967Z,5.9
2018-03-25T19:27:48.744Z,6
2018-03-25T19:37:48.648Z,6.1
2018-03-25T19:47:47.514Z,6.1
2018-03-25T19:57:46.396Z,6.2
2018-03-25T20:07:45.893Z,6.3
2018-03-25T20:17:45.189Z,6.4
2018-03-25T20:27:44.301Z,6.4
2018-03-25T20:37:43.355Z,6.5
2018-03-25T20:47:42.870Z,6.4
2018-03-25T20:57:41.656Z,6.6
2018-03-25T21:07:41.320Z,6.6
2018-03-25T21:17:40.607Z,6.6
2018-03-25T21:27:39.479Z,6.6
2018-03-25T21:37:38.609Z,6.6
2018-03-25T21:47:37.801Z,6.6
2018-03-25T21:57:37.231Z,6.5
2018-03-25T22:07:36.346Z,6.6
2018-03-25T22:17:35.837Z,6.6
2018-03-25T22:27:35.012Z,6.6
2018-03-25T22:37:34.023Z,6.6
2018-03-25T22:47:32.911Z,6.6
2018-03-25T22:57:32.286Z,6.6
2018-03-25T23:07:32.003Z,6.7
2018-03-25T23:17:30.605Z,6.6
2018-03-25T23:27:29.747Z,6.6
2018-03-25T23:37:28.927Z,6.7
2018-03-25T23:47:28.387Z,6.8
2018-03-25T23:57:27.509Z,6.8
